Terminal Aerodrome Forecast
Issued by NWS Glasgow, MT

Home | Current Version | Previous Version | Text Only | Print | Product List | Glossary On
Versions: 1 2 3 4 5 6 7 8 9 10 11 12 13 14 15 16 17 18 19 20 21 22 23 24 25 26 27
000
FTUS45 KGGW 310600 AAA
TAFGGW
TAF AMD
KGGW 310652Z 3107/0106 09018KT P6SM BKN007
     FM310800 08017KT 6SM BR OVC005
     FM311300 07024KT 1SM -SN BLSN OVC007
     FM311900 06026KT 4SM -SN BLSN OVC007
     FM010000 06014KT 6SM BR VCSH OVC025=

USA.gov is the U.S. government's official web portal to all federal, state and local government web resources and services.